sensor_id;sensor_type;location;lat;lon;timestamp;pressure;altitude;pressure_sealevel;temperature;humidity
6524;BME280;3295;38.928;-77.052;2022-12-29T00:00:26;101950.78;;;7.77;56.07
6524;BME280;3295;38.928;-77.052;2022-12-29T00:02:54;101949.81;;;7.65;56.33
6524;BME280;3295;38.928;-77.052;2022-12-29T00:05:24;101951.88;;;7.59;56.64
6524;BME280;3295;38.928;-77.052;2022-12-29T00:07:53;101955.81;;;7.56;56.64
6524;BME280;3295;38.928;-77.052;2022-12-29T00:10:21;101955.69;;;7.54;57.27
6524;BME280;3295;38.928;-77.052;2022-12-29T00:12:49;101956.63;;;7.44;57.43
6524;BME280;3295;38.928;-77.052;2022-12-29T00:15:36;101955.84;;;7.45;57.52
6524;BME280;3295;38.928;-77.052;2022-12-29T00:18:06;101963.34;;;7.44;57.33
6524;BME280;3295;38.928;-77.052;2022-12-29T00:20:35;101952.28;;;7.43;57.27
6524;BME280;3295;38.928;-77.052;2022-12-29T00:23:22;101960.41;;;7.39;57.50
6524;BME280;3295;38.928;-77.052;2022-12-29T00:26:13;101968.72;;;7.37;57.42
6524;BME280;3295;38.928;-77.052;2022-12-29T00:28:58;101964.41;;;7.36;57.92
6524;BME280;3295;38.928;-77.052;2022-12-29T00:31:43;101963.50;;;7.35;58.32
6524;BME280;3295;38.928;-77.052;2022-12-29T00:34:27;101954.28;;;7.16;58.07
6524;BME280;3295;38.928;-77.052;2022-12-29T00:37:12;101949.63;;;6.90;59.04
6524;BME280;3295;38.928;-77.052;2022-12-29T00:39:42;101958.16;;;6.80;59.74
6524;BME280;3295;38.928;-77.052;2022-12-29T00:42:27;101966.25;;;6.76;60.62
6524;BME280;3295;38.928;-77.052;2022-12-29T00:45:12;101961.06;;;6.74;60.85
6524;BME280;3295;38.928;-77.052;2022-12-29T00:47:40;101962.06;;;6.76;61.50
6524;BME280;3295;38.928;-77.052;2022-12-29T00:50:08;101968.56;;;6.83;61.40
6524;BME280;3295;38.928;-77.052;2022-12-29T00:52:34;101967.25;;;6.88;61.45
6524;BME280;3295;38.928;-77.052;2022-12-29T00:55:04;101965.47;;;6.87;61.71
6524;BME280;3295;38.928;-77.052;2022-12-29T00:57:32;101968.56;;;6.83;61.56
6524;BME280;3295;38.928;-77.052;2022-12-29T01:00:00;101964.59;;;6.76;61.80
6524;BME280;3295;38.928;-77.052;2022-12-29T01:02:28;101970.06;;;6.81;61.87
6524;BME280;3295;38.928;-77.052;2022-12-29T01:04:56;101959.91;;;6.81;61.76
6524;BME280;3295;38.928;-77.052;2022-12-29T01:07:24;101960.91;;;6.73;62.18
6524;BME280;3295;38.928;-77.052;2022-12-29T01:09:52;101968.03;;;6.67;62.33
6524;BME280;3295;38.928;-77.052;2022-12-29T01:12:38;101966.75;;;6.62;62.94
6524;BME280;3295;38.928;-77.052;2022-12-29T01:15:12;101968.03;;;6.67;63.54
6524;BME280;3295;38.928;-77.052;2022-12-29T01:17:40;101975.13;;;6.61;62.98
6524;BME280;3295;38.928;-77.052;2022-12-29T01:20:09;101964.72;;;6.58;63.82
6524;BME280;3295;38.928;-77.052;2022-12-29T01:22:38;101963.84;;;6.47;63.85
6524;BME280;3295;38.928;-77.052;2022-12-29T01:25:07;101962.19;;;6.27;64.24
6524;BME280;3295;38.928;-77.052;2022-12-29T01:27:35;101959.00;;;6.20;64.90
6524;BME280;3295;38.928;-77.052;2022-12-29T01:30:05;101956.59;;;6.21;66.08
6524;BME280;3295;38.928;-77.052;2022-12-29T01:32:33;101954.19;;;6.23;67.20
6524;BME280;3295;38.928;-77.052;2022-12-29T01:35:01;101947.59;;;6.25;66.68
6524;BME280;3295;38.928;-77.052;2022-12-29T01:37:29;101929.59;;;6.12;67.16
6524;BME280;3295;38.928;-77.052;2022-12-29T01:39:57;101950.00;;;6.23;67.45
6524;BME280;3295;38.928;-77.052;2022-12-29T01:42:25;101942.66;;;6.26;66.58
6524;BME280;3295;38.928;-77.052;2022-12-29T01:44:55;101943.44;;;6.25;67.01
6524;BME280;3295;38.928;-77.052;2022-12-29T01:47:31;101947.34;;;6.22;67.18
6524;BME280;3295;38.928;-77.052;2022-12-29T01:50:04;101947.19;;;6.10;67.44
6524;BME280;3295;38.928;-77.052;2022-12-29T01:52:35;101955.75;;;5.92;67.97
6524;BME280;3295;38.928;-77.052;2022-12-29T01:55:06;101949.13;;;5.84;69.26
6524;BME280;3295;38.928;-77.052;2022-12-29T01:57:38;101962.00;;;5.77;69.08
6524;BME280;3295;38.928;-77.052;2022-12-29T02:00:09;101957.44;;;5.72;71.63
6524;BME280;3295;38.928;-77.052;2022-12-29T02:02:40;101951.72;;;5.75;71.66
6524;BME280;3295;38.928;-77.052;2022-12-29T02:05:12;101945.28;;;5.68;72.07
6524;BME280;3295;38.928;-77.052;2022-12-29T02:07:42;101944.97;;;5.55;72.63
6524;BME280;3295;38.928;-77.052;2022-12-29T02:10:11;101948.72;;;5.50;74.18
6524;BME280;3295;38.928;-77.052;2022-12-29T02:12:40;101943.16;;;5.44;75.19
6524;BME280;3295;38.928;-77.052;2022-12-29T02:15:08;101940.16;;;5.29;75.08
6524;BME280;3295;38.928;-77.052;2022-12-29T02:17:55;101939.47;;;5.22;77.47
6524;BME280;3295;38.928;-77.052;2022-12-29T02:21:11;101936.47;;;5.26;79.81
6524;BME280;3295;38.928;-77.052;2022-12-29T02:24:09;101943.59;;;5.30;80.53
6524;BME280;3295;38.928;-77.052;2022-12-29T02:27:05;101933.47;;;5.30;77.99
6524;BME280;3295;38.928;-77.052;2022-12-29T02:29:50;101941.38;;;5.43;76.72
6524;BME280;3295;38.928;-77.052;2022-12-29T02:32:28;101939.59;;;5.42;77.10
6524;BME280;3295;38.928;-77.052;2022-12-29T02:35:06;101943.78;;;5.42;77.45
6524;BME280;3295;38.928;-77.052;2022-12-29T02:37:49;101939.31;;;5.39;78.32
6524;BME280;3295;38.928;-77.052;2022-12-29T02:40:26;101925.66;;;5.37;76.78
6524;BME280;3295;38.928;-77.052;2022-12-29T02:43:04;101931.69;;;5.29;78.08
6524;BME280;3295;38.928;-77.052;2022-12-29T02:45:45;101933.28;;;5.18;78.90
6524;BME280;3295;38.928;-77.052;2022-12-29T02:48:26;101918.44;;;5.13;78.49
6524;BME280;3295;38.928;-77.052;2022-12-29T02:51:03;101929.44;;;5.13;79.49
6524;BME280;3295;38.928;-77.052;2022-12-29T02:53:43;101933.63;;;5.13;79.97
6524;BME280;3295;38.928;-77.052;2022-12-29T02:56:28;101930.19;;;5.12;80.26
6524;BME280;3295;38.928;-77.052;2022-12-29T02:58:57;101928.00;;;5.07;79.91
6524;BME280;3295;38.928;-77.052;2022-12-29T03:01:33;101927.19;;;4.97;81.22
6524;BME280;3295;38.928;-77.052;2022-12-29T03:04:36;101926.03;;;4.94;81.49
6524;BME280;3295;38.928;-77.052;2022-12-29T03:07:26;101924.97;;;5.00;81.10
6524;BME280;3295;38.928;-77.052;2022-12-29T03:10:15;101927.19;;;4.97;82.04
6524;BME280;3295;38.928;-77.052;2022-12-29T03:12:49;101927.19;;;4.97;81.98
6524;BME280;3295;38.928;-77.052;2022-12-29T03:15:46;101918.59;;;4.95;82.48
6524;BME280;3295;38.928;-77.052;2022-12-29T03:18:47;101914.28;;;4.94;83.36
6524;BME280;3295;38.928;-77.052;2022-12-29T03:21:27;101908.75;;;4.98;83.78
6524;BME280;3295;38.928;-77.052;2022-12-29T03:24:11;101910.19;;;5.05;83.89
6524;BME280;3295;38.928;-77.052;2022-12-29T03:26:41;101911.34;;;5.09;84.17
6524;BME280;3295;38.928;-77.052;2022-12-29T03:29:12;101907.72;;;5.15;85.36
6524;BME280;3295;38.928;-77.052;2022-12-29T03:31:42;101911.22;;;5.36;85.52
6524;BME280;3295;38.928;-77.052;2022-12-29T03:34:11;101911.06;;;5.53;83.77
6524;BME280;3295;38.928;-77.052;2022-12-29T03:36:46;101896.94;;;5.76;78.73
6524;BME280;3295;38.928;-77.052;2022-12-29T03:39:21;101908.31;;;5.99;77.29
6524;BME280;3295;38.928;-77.052;2022-12-29T03:41:58;101905.41;;;6.15;72.89
6524;BME280;3295;38.928;-77.052;2022-12-29T03:44:44;101897.44;;;6.31;70.36
6524;BME280;3295;38.928;-77.052;2022-12-29T03:47:30;101910.25;;;6.53;68.00
6524;BME280;3295;38.928;-77.052;2022-12-29T03:50:11;101907.69;;;6.63;68.41
6524;BME280;3295;38.928;-77.052;2022-12-29T03:52:42;101906.66;;;6.71;66.94
6524;BME280;3295;38.928;-77.052;2022-12-29T03:55:15;101911.22;;;6.85;65.03
6524;BME280;3295;38.928;-77.052;2022-12-29T03:57:46;101907.16;;;6.87;64.54
6524;BME280;3295;38.928;-77.052;2022-12-29T04:00:15;101903.34;;;6.92;64.43
6524;BME280;3295;38.928;-77.052;2022-12-29T04:02:46;101902.19;;;6.99;63.08
6524;BME280;3295;38.928;-77.052;2022-12-29T04:05:14;101902.06;;;7.07;62.11
6524;BME280;3295;38.928;-77.052;2022-12-29T04:07:43;101896.44;;;7.11;61.44
6524;BME280;3295;38.928;-77.052;2022-12-29T04:10:11;101904.16;;;7.13;61.86
6524;BME280;3295;38.928;-77.052;2022-12-29T04:12:39;101894.41;;;7.18;62.61
6524;BME280;3295;38.928;-77.052;2022-12-29T04:15:17;101881.72;;;7.18;63.18
6524;BME280;3295;38.928;-77.052;2022-12-29T04:17:45;101882.97;;;7.23;62.38
6524;BME280;3295;38.928;-77.052;2022-12-29T04:20:13;101885.75;;;7.26;61.30
6524;BME280;3295;38.928;-77.052;2022-12-29T04:23:01;101883.44;;;7.29;60.55
6524;BME280;3295;38.928;-77.052;2022-12-29T04:25:30;101885.75;;;7.26;60.20
6524;BME280;3295;38.928;-77.052;2022-12-29T04:27:59;101875.69;;;7.37;59.17
6524;BME280;3295;38.928;-77.052;2022-12-29T04:30:30;101871.91;;;7.32;58.97
6524;BME280;3295;38.928;-77.052;2022-12-29T04:33:02;101881.22;;;7.43;58.37
6524;BME280;3295;38.928;-77.052;2022-12-29T04:35:42;101885.91;;;7.49;57.48
6524;BME280;3295;38.928;-77.052;2022-12-29T04:38:12;101875.22;;;7.53;57.43
6524;BME280;3295;38.928;-77.052;2022-12-29T04:40:43;101875.13;;;7.52;57.83
6524;BME280;3295;38.928;-77.052;2022-12-29T04:43:14;101879.06;;;7.48;57.59
6524;BME280;3295;38.928;-77.052;2022-12-29T04:45:45;101875.75;;;7.49;57.54
6524;BME280;3295;38.928;-77.052;2022-12-29T04:48:14;101873.09;;;7.47;57.75
6524;BME280;3295;38.928;-77.052;2022-12-29T04:50:42;101872.47;;;7.50;57.07
6524;BME280;3295;38.928;-77.052;2022-12-29T04:53:12;101867.38;;;7.50;57.21
6524;BME280;3295;38.928;-77.052;2022-12-29T04:55:40;101860.53;;;7.49;56.96
6524;BME280;3295;38.928;-77.052;2022-12-29T04:58:08;101855.91;;;7.55;56.56
6524;BME280;3295;38.928;-77.052;2022-12-29T05:00:38;101861.22;;;7.58;56.45
6524;BME280;3295;38.928;-77.052;2022-12-29T05:03:05;101862.75;;;7.56;57.11
6524;BME280;3295;38.928;-77.052;2022-12-29T05:05:33;101859.88;;;7.52;57.03
6524;BME280;3295;38.928;-77.052;2022-12-29T05:08:01;101851.06;;;7.58;56.52
6524;BME280;3295;38.928;-77.052;2022-12-29T05:10:31;101849.56;;;7.60;55.93
6524;BME280;3295;38.928;-77.052;2022-12-29T05:12:59;101845.59;;;7.64;55.91
6524;BME280;3295;38.928;-77.052;2022-12-29T05:15:29;101846.50;;;7.64;55.73
6524;BME280;3295;38.928;-77.052;2022-12-29T05:17:57;101845.72;;;7.65;55.82
6524;BME280;3295;38.928;-77.052;2022-12-29T05:20:28;101839.84;;;7.66;55.99
6524;BME280;3295;38.928;-77.052;2022-12-29T05:22:56;101846.94;;;7.70;55.43
6524;BME280;3295;38.928;-77.052;2022-12-29T05:25:26;101846.94;;;7.70;55.29
6524;BME280;3295;38.928;-77.052;2022-12-29T05:27:58;101845.16;;;7.69;55.34
6524;BME280;3295;38.928;-77.052;2022-12-29T05:30:26;101844.03;;;7.66;57.24
6524;BME280;3295;38.928;-77.052;2022-12-29T05:32:53;101840.97;;;7.70;56.61
6524;BME280;3295;38.928;-77.052;2022-12-29T05:35:21;101843.50;;;7.70;56.08
6524;BME280;3295;38.928;-77.052;2022-12-29T05:37:49;101843.19;;;7.65;56.11
6524;BME280;3295;38.928;-77.052;2022-12-29T05:40:17;101838.31;;;7.68;55.48
6524;BME280;3295;38.928;-77.052;2022-12-29T05:42:45;101838.56;;;7.71;55.20
6524;BME280;3295;38.928;-77.052;2022-12-29T05:45:14;101838.81;;;7.74;54.43
6524;BME280;3295;38.928;-77.052;2022-12-29T05:47:42;101843.63;;;7.71;54.40
6524;BME280;3295;38.928;-77.052;2022-12-29T05:50:10;101835.25;;;7.72;54.79
6524;BME280;3295;38.928;-77.052;2022-12-29T05:52:38;101837.91;;;7.74;54.30
6524;BME280;3295;38.928;-77.052;2022-12-29T05:55:07;101829.41;;;7.73;54.33
6524;BME280;3295;38.928;-77.052;2022-12-29T05:57:35;101832.59;;;7.71;54.64
6524;BME280;3295;38.928;-77.052;2022-12-29T06:00:03;101827.63;;;7.72;54.64
6524;BME280;3295;38.928;-77.052;2022-12-29T06:02:36;101830.41;;;7.75;54.37
6524;BME280;3295;38.928;-77.052;2022-12-29T06:05:08;101825.09;;;7.72;54.49
6524;BME280;3295;38.928;-77.052;2022-12-29T06:07:38;101820.66;;;7.70;54.61
6524;BME280;3295;38.928;-77.052;2022-12-29T06:10:07;101826.38;;;7.67;54.69
6524;BME280;3295;38.928;-77.052;2022-12-29T06:12:38;101812.81;;;7.67;54.57
6524;BME280;3295;38.928;-77.052;2022-12-29T06:15:07;101820.53;;;7.68;54.74
6524;BME280;3295;38.928;-77.052;2022-12-29T06:17:36;101822.63;;;7.62;55.76
6524;BME280;3295;38.928;-77.052;2022-12-29T06:20:07;101825.41;;;7.65;55.28
6524;BME280;3295;38.928;-77.052;2022-12-29T06:22:35;101828.81;;;7.66;54.90
6524;BME280;3295;38.928;-77.052;2022-12-29T06:25:06;101828.16;;;7.68;54.68
6524;BME280;3295;38.928;-77.052;2022-12-29T06:27:34;101829.13;;;7.59;55.04
6524;BME280;3295;38.928;-77.052;2022-12-29T06:30:03;101834.97;;;7.58;54.69
6524;BME280;3295;38.928;-77.052;2022-12-29T06:32:32;101830.53;;;7.55;54.74
6524;BME280;3295;38.928;-77.052;2022-12-29T06:35:01;101826.22;;;7.54;54.67
6524;BME280;3295;38.928;-77.052;2022-12-29T06:37:29;101831.25;;;7.64;55.17
6524;BME280;3295;38.928;-77.052;2022-12-29T06:39:57;101831.91;;;7.62;54.85
6524;BME280;3295;38.928;-77.052;2022-12-29T06:42:27;101836.34;;;7.64;55.01
6524;BME280;3295;38.928;-77.052;2022-12-29T06:44:57;101834.31;;;7.60;54.93
6524;BME280;3295;38.928;-77.052;2022-12-29T06:47:27;101835.59;;;7.55;54.95
6524;BME280;3295;38.928;-77.052;2022-12-29T06:49:54;101838.91;;;7.54;55.19
6524;BME280;3295;38.928;-77.052;2022-12-29T06:52:24;101835.59;;;7.55;55.29
6524;BME280;3295;38.928;-77.052;2022-12-29T06:54:51;101847.13;;;7.62;54.88
6524;BME280;3295;38.928;-77.052;2022-12-29T06:57:19;101840.34;;;7.51;55.38
6524;BME280;3295;38.928;-77.052;2022-12-29T06:59:52;101837.97;;;7.42;56.54
6524;BME280;3295;38.928;-77.052;2022-12-29T07:02:21;101850.94;;;7.35;56.80
6524;BME280;3295;38.928;-77.052;2022-12-29T07:04:51;101845.88;;;7.35;56.70
6524;BME280;3295;38.928;-77.052;2022-12-29T07:07:26;101851.78;;;7.24;57.35
6524;BME280;3295;38.928;-77.052;2022-12-29T07:09:54;101851.78;;;7.24;56.79
6524;BME280;3295;38.928;-77.052;2022-12-29T07:12:22;101841.63;;;7.24;57.09
6524;BME280;3295;38.928;-77.052;2022-12-29T07:14:50;101850.22;;;7.26;56.52
6524;BME280;3295;38.928;-77.052;2022-12-29T07:17:20;101849.56;;;7.28;56.63
6524;BME280;3295;38.928;-77.052;2022-12-29T07:19:48;101842.00;;;7.18;56.78
6524;BME280;3295;38.928;-77.052;2022-12-29T07:22:16;101850.00;;;7.23;57.45
6524;BME280;3295;38.928;-77.052;2022-12-29T07:24:50;101847.22;;;7.20;57.39
6524;BME280;3295;38.928;-77.052;2022-12-29T07:27:18;101840.94;;;7.04;58.58
6524;BME280;3295;38.928;-77.052;2022-12-29T07:29:45;101843.97;;;7.00;60.10
6524;BME280;3295;38.928;-77.052;2022-12-29T07:32:19;101848.28;;;7.01;61.38
6524;BME280;3295;38.928;-77.052;2022-12-29T07:34:47;101853.34;;;7.01;61.93
6524;BME280;3295;38.928;-77.052;2022-12-29T07:37:18;101852.72;;;7.04;60.47
6524;BME280;3295;38.928;-77.052;2022-12-29T07:39:46;101858.34;;;6.90;62.53
6524;BME280;3295;38.928;-77.052;2022-12-29T07:42:22;101850.38;;;6.75;61.84
6524;BME280;3295;38.928;-77.052;2022-12-29T07:44:49;101854.75;;;6.56;62.13
6524;BME280;3295;38.928;-77.052;2022-12-29T07:47:17;101857.91;;;6.43;62.76
6524;BME280;3295;38.928;-77.052;2022-12-29T07:49:45;101852.22;;;6.25;65.47
6524;BME280;3295;38.928;-77.052;2022-12-29T07:52:13;101861.59;;;6.36;67.60
6524;BME280;3295;38.928;-77.052;2022-12-29T07:54:44;101858.31;;;6.37;65.55
6524;BME280;3295;38.928;-77.052;2022-12-29T07:57:14;101861.31;;;6.43;65.12
6524;BME280;3295;38.928;-77.052;2022-12-29T07:59:44;101862.75;;;6.40;65.34
6524;BME280;3295;38.928;-77.052;2022-12-29T08:02:12;101859.81;;;6.35;65.65
6524;BME280;3295;38.928;-77.052;2022-12-29T08:04:40;101859.81;;;6.35;65.22
6524;BME280;3295;38.928;-77.052;2022-12-29T08:07:10;101859.56;;;6.32;64.25
6524;BME280;3295;38.928;-77.052;2022-12-29T08:09:38;101863.13;;;6.34;64.24
6524;BME280;3295;38.928;-77.052;2022-12-29T08:12:09;101866.28;;;6.42;64.65
6524;BME280;3295;38.928;-77.052;2022-12-29T08:14:39;101860.34;;;6.41;64.43
6524;BME280;3295;38.928;-77.052;2022-12-29T08:17:11;101859.81;;;6.35;64.58
6524;BME280;3295;38.928;-77.052;2022-12-29T08:19:39;101854.59;;;6.44;64.18
6524;BME280;3295;38.928;-77.052;2022-12-29T08:22:08;101844.72;;;6.47;63.51
6524;BME280;3295;38.928;-77.052;2022-12-29T08:24:36;101854.59;;;6.44;64.16
6524;BME280;3295;38.928;-77.052;2022-12-29T08:27:04;101854.25;;;6.39;64.47
6524;BME280;3295;38.928;-77.052;2022-12-29T08:29:31;101853.25;;;6.27;65.25
6524;BME280;3295;38.928;-77.052;2022-12-29T08:31:59;101849.44;;;6.12;67.47
6524;BME280;3295;38.928;-77.052;2022-12-29T08:34:30;101849.06;;;5.97;67.36
6524;BME280;3295;38.928;-77.052;2022-12-29T08:37:00;101846.66;;;5.99;67.71
6524;BME280;3295;38.928;-77.052;2022-12-29T08:39:28;101848.44;;;6.00;71.20
6524;BME280;3295;38.928;-77.052;2022-12-29T08:41:56;101851.19;;;5.93;69.54
6524;BME280;3295;38.928;-77.052;2022-12-29T08:44:24;101842.81;;;5.84;70.59
6524;BME280;3295;38.928;-77.052;2022-12-29T08:46:52;101845.34;;;5.84;71.05
6524;BME280;3295;38.928;-77.052;2022-12-29T08:49:21;101846.31;;;5.76;71.33
6524;BME280;3295;38.928;-77.052;2022-12-29T08:51:51;101838.72;;;5.65;73.25
6524;BME280;3295;38.928;-77.052;2022-12-29T08:54:19;101850.34;;;5.63;72.09
6524;BME280;3295;38.928;-77.052;2022-12-29T08:56:49;101853.09;;;5.46;75.70
6524;BME280;3295;38.928;-77.052;2022-12-29T08:59:17;101851.56;;;5.48;76.58
6524;BME280;3295;38.928;-77.052;2022-12-29T09:01:45;101852.84;;;5.43;76.88
6524;BME280;3295;38.928;-77.052;2022-12-29T09:04:15;101855.72;;;5.38;75.19
6524;BME280;3295;38.928;-77.052;2022-12-29T09:06:43;101849.88;;;5.28;76.96
6524;BME280;3295;38.928;-77.052;2022-12-29T09:09:13;101851.66;;;5.29;76.25
6524;BME280;3295;38.928;-77.052;2022-12-29T09:11:43;101847.06;;;5.25;76.37
6524;BME280;3295;38.928;-77.052;2022-12-29T09:14:12;101846.94;;;5.24;75.83
6524;BME280;3295;38.928;-77.052;2022-12-29T09:16:42;101853.25;;;5.19;77.71
6524;BME280;3295;38.928;-77.052;2022-12-29T09:19:27;101848.81;;;5.16;77.35
6524;BME280;3295;38.928;-77.052;2022-12-29T09:21:54;101850.41;;;5.06;76.87
6524;BME280;3295;38.928;-77.052;2022-12-29T09:24:24;101847.94;;;4.97;77.15
6524;BME280;3295;38.928;-77.052;2022-12-29T09:26:52;101850.84;;;4.91;77.76
6524;BME280;3295;38.928;-77.052;2022-12-29T09:29:19;101857.41;;;4.89;79.37
6524;BME280;3295;38.928;-77.052;2022-12-29T09:31:47;101846.88;;;4.85;78.76
6524;BME280;3295;38.928;-77.052;2022-12-29T09:34:15;101853.53;;;4.74;80.68
6524;BME280;3295;38.928;-77.052;2022-12-29T09:36:43;101854.34;;;4.64;82.04
6524;BME280;3295;38.928;-77.052;2022-12-29T09:39:12;101851.41;;;4.60;83.61
6524;BME280;3295;38.928;-77.052;2022-12-29T09:41:49;101859.13;;;4.61;83.83
6524;BME280;3295;38.928;-77.052;2022-12-29T09:44:23;101863.91;;;4.58;83.98
6524;BME280;3295;38.928;-77.052;2022-12-29T09:46:54;101863.09;;;4.49;86.09
6524;BME280;3295;38.928;-77.052;2022-12-29T09:49:26;101867.63;;;4.53;86.91
6524;BME280;3295;38.928;-77.052;2022-12-29T09:52:01;101863.75;;;4.57;88.51
6524;BME280;3295;38.928;-77.052;2022-12-29T09:54:41;101868.06;;;4.58;85.84
6524;BME280;3295;38.928;-77.052;2022-12-29T09:57:21;101865.13;;;4.53;87.05
6524;BME280;3295;38.928;-77.052;2022-12-29T09:59:54;101858.28;;;4.52;87.42
6524;BME280;3295;38.928;-77.052;2022-12-29T10:02:42;101866.50;;;4.50;85.98
6524;BME280;3295;38.928;-77.052;2022-12-29T10:05:21;101869.22;;;4.43;85.05
6524;BME280;3295;38.928;-77.052;2022-12-29T10:08:03;101874.72;;;4.39;88.50
6524;BME280;3295;38.928;-77.052;2022-12-29T10:10:39;101868.75;;;4.47;88.39
6524;BME280;3295;38.928;-77.052;2022-12-29T10:13:25;101873.06;;;4.48;86.98
6524;BME280;3295;38.928;-77.052;2022-12-29T10:16:02;101879.19;;;4.41;86.94
6524;BME280;3295;38.928;-77.052;2022-12-29T10:19:00;101891.25;;;4.35;87.11
6524;BME280;3295;38.928;-77.052;2022-12-29T10:21:43;101894.19;;;4.40;87.24
6524;BME280;3295;38.928;-77.052;2022-12-29T10:24:17;101905.53;;;4.35;87.21
6524;BME280;3295;38.928;-77.052;2022-12-29T10:26:47;101902.72;;;4.32;87.90
6524;BME280;3295;38.928;-77.052;2022-12-29T10:29:19;101911.59;;;4.37;88.77
6524;BME280;3295;38.928;-77.052;2022-12-29T10:31:50;101910.56;;;4.35;87.91
6524;BME280;3295;38.928;-77.052;2022-12-29T10:34:25;101907.53;;;4.20;86.17
6524;BME280;3295;38.928;-77.052;2022-12-29T10:36:58;101918.31;;;4.09;87.73
6524;BME280;3295;38.928;-77.052;2022-12-29T10:39:32;101923.22;;;3.99;87.55
6524;BME280;3295;38.928;-77.052;2022-12-29T10:42:07;101921.78;;;3.92;90.47
6524;BME280;3295;38.928;-77.052;2022-12-29T10:44:38;101930.84;;;3.90;90.72
6524;BME280;3295;38.928;-77.052;2022-12-29T10:47:11;101932.78;;;3.84;89.90
6524;BME280;3295;38.928;-77.052;2022-12-29T10:49:42;101943.00;;;3.85;91.67
6524;BME280;3295;38.928;-77.052;2022-12-29T10:52:15;101949.84;;;3.86;92.87
6524;BME280;3295;38.928;-77.052;2022-12-29T10:54:48;101950.44;;;3.84;92.19
6524;BME280;3295;38.928;-77.052;2022-12-29T10:57:24;101952.88;;;3.65;92.83
6524;BME280;3295;38.928;-77.052;2022-12-29T10:59:54;101957.03;;;3.56;93.72
6524;BME280;3295;38.928;-77.052;2022-12-29T11:02:40;101955.28;;;3.46;95.28
6524;BME280;3295;38.928;-77.052;2022-12-29T11:05:15;101959.78;;;3.40;97.02
6524;BME280;3295;38.928;-77.052;2022-12-29T11:07:50;101962.44;;;3.33;97.80
6524;BME280;3295;38.928;-77.052;2022-12-29T11:10:30;101960.09;;;3.26;99.19
6524;BME280;3295;38.928;-77.052;2022-12-29T11:13:03;101960.06;;;3.17;99.28
6524;BME280;3295;38.928;-77.052;2022-12-29T11:15:41;101963.94;;;3.14;100.00
6524;BME280;3295;38.928;-77.052;2022-12-29T11:18:21;101955.19;;;3.10;100.00
6524;BME280;3295;38.928;-77.052;2022-12-29T11:20:54;101959.75;;;3.14;100.00
6524;BME280;3295;38.928;-77.052;2022-12-29T11:23:31;101947.31;;;3.16;100.00
6524;BME280;3295;38.928;-77.052;2022-12-29T11:26:16;101956.50;;;3.24;100.00
6524;BME280;3295;38.928;-77.052;2022-12-29T11:28:46;101960.81;;;3.08;100.00
6524;BME280;3295;38.928;-77.052;2022-12-29T11:31:22;101962.13;;;3.30;100.00
6524;BME280;3295;38.928;-77.052;2022-12-29T11:33:50;101966.28;;;3.38;100.00
6524;BME280;3295;38.928;-77.052;2022-12-29T11:36:21;101969.22;;;3.43;100.00
6524;BME280;3295;38.928;-77.052;2022-12-29T11:38:51;101976.50;;;3.48;100.00
6524;BME280;3295;38.928;-77.052;2022-12-29T11:41:24;101972.31;;;3.57;100.00
6524;BME280;3295;38.928;-77.052;2022-12-29T11:43:54;101992.38;;;3.65;100.00
6524;BME280;3295;38.928;-77.052;2022-12-29T11:46:27;101988.91;;;3.73;100.00
6524;BME280;3295;38.928;-77.052;2022-12-29T11:48:59;101994.72;;;3.72;98.54
6524;BME280;3295;38.928;-77.052;2022-12-29T11:51:29;101996.06;;;3.60;96.27
6524;BME280;3295;38.928;-77.052;2022-12-29T11:53:59;101992.81;;;3.43;96.08
6524;BME280;3295;38.928;-77.052;2022-12-29T11:56:34;101981.84;;;3.17;96.46
6524;BME280;3295;38.928;-77.052;2022-12-29T11:59:34;101994.00;;;3.04;99.24
6524;BME280;3295;38.928;-77.052;2022-12-29T12:02:16;101996.22;;;2.92;100.00
6524;BME280;3295;38.928;-77.052;2022-12-29T12:04:49;101995.50;;;2.84;100.00
6524;BME280;3295;38.928;-77.052;2022-12-29T12:07:28;101986.72;;;2.72;100.00
6524;BME280;3295;38.928;-77.052;2022-12-29T12:10:01;101994.88;;;2.78;100.00
6524;BME280;3295;38.928;-77.052;2022-12-29T12:12:37;101985.22;;;2.74;100.00
6524;BME280;3295;38.928;-77.052;2022-12-29T12:15:16;101999.50;;;2.91;100.00
6524;BME280;3295;38.928;-77.052;2022-12-29T12:17:50;101999.38;;;2.98;100.00
6524;BME280;3295;38.928;-77.052;2022-12-29T12:20:23;101994.75;;;3.03;100.00
6524;BME280;3295;38.928;-77.052;2022-12-29T12:23:01;101998.31;;;3.22;100.00
6524;BME280;3295;38.928;-77.052;2022-12-29T12:25:36;101997.44;;;3.30;100.00
6524;BME280;3295;38.928;-77.052;2022-12-29T12:28:11;102004.09;;;3.30;100.00
6524;BME280;3295;38.928;-77.052;2022-12-29T12:30:45;101994.16;;;3.31;100.00
6524;BME280;3295;38.928;-77.052;2022-12-29T12:33:22;102005.47;;;3.26;100.00
6524;BME280;3295;38.928;-77.052;2022-12-29T12:36:03;102005.47;;;3.26;100.00
6524;BME280;3295;38.928;-77.052;2022-12-29T12:38:37;102004.28;;;3.14;99.66
6524;BME280;3295;38.928;-77.052;2022-12-29T12:41:15;102008.81;;;3.01;100.00
6524;BME280;3295;38.928;-77.052;2022-12-29T12:43:50;102008.41;;;2.96;100.00
6524;BME280;3295;38.928;-77.052;2022-12-29T12:49:34;101999.22;;;2.97;100.00
6524;BME280;3295;38.928;-77.052;2022-12-29T12:52:14;102001.56;;;3.04;100.00
6524;BME280;3295;38.928;-77.052;2022-12-29T12:55:00;101999.22;;;3.14;100.00
6524;BME280;3295;38.928;-77.052;2022-12-29T12:57:40;102007.50;;;2.96;100.00
6524;BME280;3295;38.928;-77.052;2022-12-29T13:00:12;102009.59;;;3.17;100.00
6524;BME280;3295;38.928;-77.052;2022-12-29T13:02:53;102009.00;;;3.37;100.00
6524;BME280;3295;38.928;-77.052;2022-12-29T13:08:33;102020.56;;;3.43;100.00
6524;BME280;3295;38.928;-77.052;2022-12-29T13:11:13;102014.34;;;3.40;100.00
6524;BME280;3295;38.928;-77.052;2022-12-29T13:14:12;102022.94;;;3.50;100.00
6524;BME280;3295;38.928;-77.052;2022-12-29T13:16:48;102017.91;;;3.50;100.00
6524;BME280;3295;38.928;-77.052;2022-12-29T13:19:26;102019.84;;;3.53;100.00
6524;BME280;3295;38.928;-77.052;2022-12-29T13:22:04;102021.47;;;3.52;100.00
6524;BME280;3295;38.928;-77.052;2022-12-29T13:24:44;102025.59;;;3.61;100.00
6524;BME280;3295;38.928;-77.052;2022-12-29T13:27:19;102024.13;;;3.63;100.00
6524;BME280;3295;38.928;-77.052;2022-12-29T13:29:57;102024.41;;;3.66;100.00
6524;BME280;3295;38.928;-77.052;2022-12-29T13:32:37;102030.94;;;3.64;100.00
6524;BME280;3295;38.928;-77.052;2022-12-29T13:35:23;102033.91;;;3.60;100.00